Time;durP1;ratioP1;P1;durP2;ratioP2;P2;SDS_P1;SDS_P2;PMS_P1;PMS_P2;Temp;Humidity;BMP_temperature;BMP_pressure;BME280_temperature;BME280_humidity;BME280_pressure;Samples;Min_cycle;Max_cycle;Signal;HPM_P1;HPM_P2
2023/05/07 00:00:09;;;;;;;3.00;2.70;;;;;;;15.44;85.75;95649.78;5055700;28;20044;-77
2023/05/07 00:02:35;;;;;;;2.70;2.60;;;;;;;15.43;84.97;95645.47;5055516;28;20132;-77
2023/05/07 00:05:02;;;;;;;2.95;2.45;;;;;;;15.50;85.00;95647.41;5053856;28;20039;-77
2023/05/07 00:07:27;;;;;;;4.18;3.00;;;;;;;15.41;86.12;95650.13;5056476;28;20070;-77
2023/05/07 00:09:53;;;;;;;3.75;2.75;;;;;;;15.26;87.94;95644.72;5054928;28;20028;-77
2023/05/07 00:12:18;;;;;;;3.20;2.88;;;;;;;15.15;88.74;95651.22;5056728;28;20394;-77
2023/05/07 00:14:44;;;;;;;5.95;2.53;;;;;;;15.10;89.06;95648.25;5055889;28;20075;-76
2023/05/07 00:17:09;;;;;;;3.42;2.88;;;;;;;15.04;89.49;95656.88;5056827;28;20048;-77
2023/05/07 00:19:35;;;;;;;2.83;2.72;;;;;;;14.94;90.85;95648.31;5056876;28;20068;-77
2023/05/07 00:22:00;;;;;;;4.10;2.70;;;;;;;14.89;90.56;95651.47;5056448;28;20032;-76
2023/05/07 00:24:25;;;;;;;4.68;2.80;;;;;;;14.79;92.16;95656.97;5056486;28;20032;-76
2023/05/07 00:26:52;;;;;;;3.45;3.15;;;;;;;14.83;90.89;95658.28;5055024;28;20074;-77
2023/05/07 00:29:17;;;;;;;3.22;2.92;;;;;;;14.84;92.84;95659.91;5056150;28;20037;-77
2023/05/07 00:31:43;;;;;;;2.97;2.78;;;;;;;14.88;91.49;95660.41;5055204;28;20028;-77
2023/05/07 00:34:08;;;;;;;3.03;2.70;;;;;;;14.95;91.71;95655.28;5056106;28;20017;-77
2023/05/07 00:36:34;;;;;;;4.45;3.10;;;;;;;14.96;93.25;95656.91;5056059;28;20120;-77
2023/05/07 00:39:01;;;;;;;4.32;2.60;;;;;;;14.96;93.54;95651.63;5046583;28;20163;-77
2023/05/07 00:41:27;;;;;;;4.70;2.85;;;;;;;14.98;93.42;95657.56;5056734;28;20029;-77
2023/05/07 00:43:54;;;;;;;3.15;2.63;;;;;;;14.97;95.08;95655.94;5054380;28;20052;-77
2023/05/07 00:46:21;;;;;;;3.20;2.90;;;;;;;14.89;93.93;95656.78;5056522;28;20037;-77
2023/05/07 00:48:47;;;;;;;2.85;2.65;;;;;;;14.97;91.76;95653.28;5054426;28;20040;-77
2023/05/07 00:51:12;;;;;;;3.00;2.80;;;;;;;14.98;90.52;95649.63;5054151;28;20052;-77
2023/05/07 00:53:38;;;;;;;2.85;2.65;;;;;;;14.93;92.38;95654.63;5055762;28;20060;-77
2023/05/07 00:56:06;;;;;;;3.20;2.90;;;;;;;14.93;91.48;95654.63;5056078;28;20389;-77
2023/05/07 00:58:33;;;;;;;3.22;2.92;;;;;;;14.93;91.62;95663.38;5056245;28;20056;-77
2023/05/07 01:00:59;;;;;;;3.70;2.90;;;;;;;14.89;92.54;95657.56;5054119;28;20051;-78
2023/05/07 01:03:24;;;;;;;3.42;2.72;;;;;;;14.86;92.51;95655.28;5055173;28;20025;-77
2023/05/07 01:05:50;;;;;;;2.80;2.60;;;;;;;14.95;91.68;95663.22;5056727;28;20488;-77
2023/05/07 01:08:17;;;;;;;3.50;2.70;;;;;;;14.93;91.51;95658.06;5060215;28;20064;-77
2023/05/07 01:10:43;;;;;;;2.92;2.72;;;;;;;14.93;91.61;95663.38;5055476;28;20461;-76
2023/05/07 01:13:10;;;;;;;5.10;2.72;;;;;;;14.93;91.58;95663.38;5055532;28;20033;-77
2023/05/07 01:15:36;;;;;;;3.40;2.72;;;;;;;14.96;91.51;95665.69;5055732;28;20024;-77
2023/05/07 01:18:02;;;;;;;3.65;2.78;;;;;;;15.00;91.10;95668.84;5055437;28;20497;-76
2023/05/07 01:20:28;;;;;;;4.05;2.70;;;;;;;14.99;91.21;95668.00;5054175;28;20119;-78
2023/05/07 01:22:54;;;;;;;3.33;3.03;;;;;;;15.09;90.67;95659.84;5055334;28;20016;-76
2023/05/07 01:25:20;;;;;;;4.40;2.75;;;;;;;15.04;90.74;95670.13;5054397;28;20040;-77
2023/05/07 01:27:46;;;;;;;3.78;2.53;;;;;;;15.00;91.66;95674.13;5050436;28;20022;-77
2023/05/07 01:30:12;;;;;;;2.70;2.50;;;;;;;14.94;91.33;95670.34;5049707;28;20853;-77
2023/05/07 01:32:47;;;;;;;4.57;2.90;;;;;;;14.93;91.41;95673.97;5055085;28;20069;-77
2023/05/07 01:35:18;;;;;;;3.35;3.03;;;;;;;14.86;92.54;95673.00;5054892;28;20032;-77
2023/05/07 01:37:44;;;;;;;3.10;2.70;;;;;;;14.83;92.39;95673.34;5055176;28;20160;-77
2023/05/07 01:40:13;;;;;;;3.00;2.65;;;;;;;14.73;94.55;95673.53;5051762;28;20071;-77
2023/05/07 01:42:39;;;;;;;3.00;2.80;;;;;;;14.69;94.43;95673.00;5049928;28;20033;-78
2023/05/07 01:45:05;;;;;;;3.08;2.83;;;;;;;14.72;93.97;95682.50;5065932;28;20025;-77
2023/05/07 01:47:32;;;;;;;3.60;2.70;;;;;;;14.73;93.73;95678.84;5069787;28;20059;-78
2023/05/07 01:49:58;;;;;;;4.05;3.70;;;;;;;14.78;92.99;95680.97;5052142;28;20025;-77
2023/05/07 01:52:24;;;;;;;3.90;3.17;;;;;;;14.73;93.62;95686.78;5053755;28;20021;-77
2023/05/07 01:54:50;;;;;;;6.53;2.97;;;;;;;14.67;95.10;95684.75;5049226;28;20061;-77
2023/05/07 01:57:15;;;;;;;3.60;2.67;;;;;;;14.62;94.33;95682.63;5070484;28;20478;-77
2023/05/07 01:59:41;;;;;;;3.22;2.92;;;;;;;14.57;96.52;95685.78;5053550;28;20088;-77
2023/05/07 02:02:06;;;;;;;3.05;2.80;;;;;;;14.58;97.08;95681.28;5056448;28;20488;-77
2023/05/07 02:04:32;;;;;;;3.28;3.00;;;;;;;14.54;97.06;95685.28;5037595;28;20417;-78
2023/05/07 02:06:57;;;;;;;3.72;3.13;;;;;;;14.54;96.87;95686.13;5053456;28;20500;-77
2023/05/07 02:09:23;;;;;;;4.65;3.42;;;;;;;14.55;97.35;95682.47;5054325;28;20055;-77
2023/05/07 02:11:49;;;;;;;4.50;2.97;;;;;;;14.55;97.03;95674.53;5053052;28;20367;-78
2023/05/07 02:14:15;;;;;;;4.65;3.42;;;;;;;14.52;97.24;95671.38;5053857;28;20033;-77
2023/05/07 02:16:40;;;;;;;3.30;3.10;;;;;;;14.50;96.23;95676.84;5054602;28;20032;-78
2023/05/07 02:19:06;;;;;;;3.25;3.05;;;;;;;14.51;96.91;95675.84;5052991;28;20021;-78
2023/05/07 02:21:31;;;;;;;3.22;3.03;;;;;;;14.53;97.65;95676.50;5054635;28;20075;-77
2023/05/07 02:23:57;;;;;;;3.40;3.10;;;;;;;14.53;98.06;95670.38;5053124;28;20025;-77
2023/05/07 02:26:22;;;;;;;4.47;2.88;;;;;;;14.51;98.71;95677.66;5055118;28;20021;-77
2023/05/07 02:28:47;;;;;;;3.50;3.20;;;;;;;14.52;98.68;95674.84;5048990;28;20021;-77
2023/05/07 02:31:13;;;;;;;3.42;3.10;;;;;;;14.50;99.53;95684.78;5054368;28;20405;-77
2023/05/07 02:33:38;;;;;;;5.20;3.03;;;;;;;14.52;98.82;95682.81;5053190;28;20029;-77
2023/05/07 02:36:11;;;;;;;5.28;3.38;;;;;;;14.47;99.90;95685.94;5051105;28;20024;-78
2023/05/07 02:38:37;;;;;;;4.43;3.08;;;;;;;14.42;99.99;95687.44;5054405;28;20064;-78
2023/05/07 02:41:02;;;;;;;4.35;3.15;;;;;;;14.37;100.00;95687.09;5054563;28;20033;-77
2023/05/07 02:43:28;;;;;;;5.22;3.20;;;;;;;14.28;100.00;95687.13;5051101;28;20470;-78
2023/05/07 02:46:08;;;;;;;4.55;3.13;;;;;;;14.23;99.70;95685.94;5053367;28;20489;-77
2023/05/07 02:48:34;;;;;;;3.80;3.10;;;;;;;14.15;100.00;95697.34;5053434;28;20458;-78
2023/05/07 02:51:00;;;;;;;3.88;2.72;;;;;;;14.12;100.00;95692.41;5054632;28;20024;-78
2023/05/07 02:53:26;;;;;;;6.00;3.42;;;;;;;14.10;100.00;95694.38;5054096;28;20017;-77
2023/05/07 02:56:01;;;;;;;5.82;3.25;;;;;;;14.03;100.00;95697.66;5054437;28;20045;-78
2023/05/07 02:58:27;;;;;;;3.50;2.80;;;;;;;13.95;100.00;95697.66;5054824;28;20516;-78
2023/05/07 03:00:54;;;;;;;3.50;3.30;;;;;;;13.92;100.00;95703.28;5056927;28;20041;-78
2023/05/07 03:03:20;;;;;;;3.67;3.38;;;;;;;13.90;100.00;95707.91;5054419;28;20025;-77
2023/05/07 03:05:45;;;;;;;3.35;3.05;;;;;;;13.87;100.00;95701.13;5053644;28;20076;-78
2023/05/07 03:08:11;;;;;;;3.65;3.35;;;;;;;13.85;100.00;95697.00;5052303;28;20317;-77
2023/05/07 03:10:36;;;;;;;4.32;3.17;;;;;;;13.80;100.00;95709.84;5052986;28;20025;-78
2023/05/07 03:13:02;;;;;;;3.42;3.13;;;;;;;13.73;100.00;95707.06;5052945;28;20397;-77
2023/05/07 03:15:27;;;;;;;3.53;3.33;;;;;;;13.69;100.00;95700.41;5054265;28;20025;-78
2023/05/07 03:17:53;;;;;;;4.57;3.22;;;;;;;13.64;100.00;95706.19;5053689;28;20103;-77
2023/05/07 03:20:18;;;;;;;8.25;3.33;;;;;;;13.61;100.00;95702.03;5053825;28;20021;-77
2023/05/07 03:22:44;;;;;;;3.92;3.50;;;;;;;13.55;100.00;95699.22;5051016;28;20021;-77
2023/05/07 03:25:10;;;;;;;4.78;3.63;;;;;;;13.52;100.00;95704.81;5053930;28;20076;-78
2023/05/07 03:27:35;;;;;;;3.50;3.30;;;;;;;13.53;100.00;95695.91;5055586;28;20024;-78
2023/05/07 03:30:01;;;;;;;3.80;3.50;;;;;;;13.49;100.00;95703.34;5057293;28;20025;-78
2023/05/07 03:32:26;;;;;;;3.78;3.45;;;;;;;13.45;100.00;95702.81;5056183;28;20081;-78
2023/05/07 03:34:52;;;;;;;6.18;3.30;;;;;;;13.45;100.00;95697.53;5056895;28;20401;-78
2023/05/07 03:37:18;;;;;;;3.75;3.40;;;;;;;13.45;100.00;95704.63;5055653;28;20031;-78
2023/05/07 03:39:43;;;;;;;4.18;3.35;;;;;;;13.48;100.00;95701.66;5057214;28;20334;-78
2023/05/07 03:42:08;;;;;;;3.83;3.50;;;;;;;13.51;100.00;95705.81;5056300;28;20141;-78
2023/05/07 03:44:36;;;;;;;4.82;3.28;;;;;;;13.49;100.00;95703.34;5056047;28;20025;-77
2023/05/07 03:47:01;;;;;;;3.67;3.38;;;;;;;13.48;100.00;95706.13;5057070;28;20094;-78
2023/05/07 03:49:27;;;;;;;3.63;3.33;;;;;;;13.54;100.00;95700.19;5049550;28;20061;-78
2023/05/07 03:51:52;;;;;;;3.35;3.15;;;;;;;13.48;100.00;95700.84;5055553;28;20013;-77
2023/05/07 03:54:17;;;;;;;4.25;3.28;;;;;;;13.42;100.00;95697.81;5057183;28;20067;-77
2023/05/07 03:56:43;;;;;;;4.13;3.72;;;;;;;13.36;100.00;95690.50;5055280;28;20021;-78
2023/05/07 03:59:08;;;;;;;3.72;3.28;;;;;;;13.33;100.00;95693.47;5056179;28;20214;-78
2023/05/07 04:01:33;;;;;;;4.97;3.28;;;;;;;13.28;100.00;95695.78;5056664;28;20017;-77
2023/05/07 04:03:59;;;;;;;4.28;3.58;;;;;;;13.22;100.00;95697.22;5056740;28;20093;-77
2023/05/07 04:06:25;;;;;;;3.80;3.50;;;;;;;13.21;100.00;95703.50;5057236;28;20024;-78
2023/05/07 04:08:50;;;;;;;3.20;3.00;;;;;;;13.27;100.00;95707.34;5056683;28;20021;-79
2023/05/07 04:11:15;;;;;;;5.57;3.38;;;;;;;13.32;100.00;95699.75;5056833;28;20485;-78
2023/05/07 04:13:41;;;;;;;5.00;3.55;;;;;;;13.30;100.00;95707.03;5055004;28;20021;-78
2023/05/07 04:16:06;;;;;;;5.05;3.80;;;;;;;13.25;100.00;95706.66;5056802;28;20028;-77
2023/05/07 04:18:32;;;;;;;3.70;3.40;;;;;;;13.22;100.00;95712.28;5056773;28;20078;-78
2023/05/07 04:20:57;;;;;;;8.48;3.20;;;;;;;13.16;100.00;95717.22;5056533;28;20036;-78
2023/05/07 04:23:22;;;;;;;3.90;3.60;;;;;;;13.12;100.00;95721.13;5055313;28;20021;-77
2023/05/07 04:25:48;;;;;;;5.85;3.60;;;;;;;13.09;100.00;95721.44;5055630;28;20021;-77
2023/05/07 04:28:13;;;;;;;3.60;3.30;;;;;;;13.13;100.00;95722.78;5056479;28;20748;-77
2023/05/07 04:30:39;;;;;;;5.85;3.35;;;;;;;13.13;100.00;95724.63;5056330;28;20021;-77
2023/05/07 04:33:06;;;;;;;5.65;3.55;;;;;;;13.12;100.00;95729.06;5056147;28;20571;-78
2023/05/07 04:35:32;;;;;;;3.88;3.58;;;;;;;13.08;100.00;95726.91;5071558;28;20017;-77
2023/05/07 04:37:57;;;;;;;4.40;3.22;;;;;;;13.03;100.00;95727.38;5055486;28;20028;-78
2023/05/07 04:40:22;;;;;;;5.95;3.40;;;;;;;12.99;100.00;95733.97;5055719;28;20049;-77
2023/05/07 04:42:48;;;;;;;3.85;3.38;;;;;;;13.04;100.00;95729.88;5056059;28;20040;-77
2023/05/07 04:45:13;;;;;;;3.63;3.10;;;;;;;13.13;100.00;95736.00;5052488;28;20032;-77
2023/05/07 04:47:39;;;;;;;3.83;3.50;;;;;;;13.19;100.00;95734.56;5051999;28;20080;-77
2023/05/07 04:50:06;;;;;;;5.95;3.03;;;;;;;13.25;100.00;95733.09;5059623;28;20088;-77
2023/05/07 04:52:31;;;;;;;4.25;3.63;;;;;;;13.23;100.00;95729.78;5058508;28;20040;-76
2023/05/07 04:54:59;;;;;;;4.60;3.67;;;;;;;13.18;100.00;95728.47;5055374;28;20040;-77
2023/05/07 04:57:25;;;;;;;6.93;3.80;;;;;;;13.25;100.00;95730.47;5056046;28;20031;-77
2023/05/07 04:59:50;;;;;;;3.53;3.22;;;;;;;13.30;100.00;95722.88;5048569;28;20057;-77
2023/05/07 05:02:16;;;;;;;3.80;3.50;;;;;;;13.39;100.00;95727.25;5055597;28;20051;-77
2023/05/07 05:04:41;;;;;;;3.85;3.40;;;;;;;13.49;100.00;95729.78;5055710;28;20021;-77
2023/05/07 05:07:07;;;;;;;3.60;3.40;;;;;;;13.50;100.00;95731.44;5055420;28;20956;-77
2023/05/07 05:09:32;;;;;;;6.70;4.15;;;;;;;13.55;100.00;95723.84;5054377;28;20063;-77
2023/05/07 05:11:58;;;;;;;3.83;3.53;;;;;;;13.66;100.00;95728.03;5055738;28;20107;-77
2023/05/07 05:14:24;;;;;;;5.07;4.13;;;;;;;13.68;100.00;95725.19;5054490;28;20126;-77
2023/05/07 05:16:49;;;;;;;4.07;3.78;;;;;;;13.70;100.00;95721.41;5054357;28;20037;-77
2023/05/07 05:19:15;;;;;;;4.00;3.63;;;;;;;13.77;100.00;95716.31;5054519;28;20501;-78
2023/05/07 05:21:40;;;;;;;5.07;3.25;;;;;;;13.88;100.00;95717.84;5051080;28;20095;-77
2023/05/07 05:24:06;;;;;;;5.80;3.83;;;;;;;13.96;100.00;95711.75;5044812;28;20112;-77
2023/05/07 05:26:31;;;;;;;5.05;3.30;;;;;;;14.03;100.00;95716.19;5055145;28;20075;-77
2023/05/07 05:28:57;;;;;;;3.88;3.40;;;;;;;14.10;100.00;95720.84;5055420;28;20033;-77
2023/05/07 05:31:22;;;;;;;3.35;3.15;;;;;;;14.26;100.00;95723.53;5054839;28;20033;-77
2023/05/07 05:33:47;;;;;;;3.58;3.13;;;;;;;14.21;100.00;95723.16;5055181;28;20033;-77
2023/05/07 05:36:13;;;;;;;3.72;3.42;;;;;;;14.25;100.00;95724.50;5054234;28;20021;-77
2023/05/07 05:38:39;;;;;;;3.97;3.60;;;;;;;14.32;100.00;95725.50;5053112;28;20291;-77
2023/05/07 05:41:05;;;;;;;4.53;3.30;;;;;;;14.42;100.00;95738.59;5054897;28;20032;-77
2023/05/07 05:43:30;;;;;;;3.95;3.42;;;;;;;14.42;99.84;95727.16;5049088;28;20039;-78
2023/05/07 05:45:56;;;;;;;4.40;3.08;;;;;;;14.36;100.00;95727.81;5054981;28;20397;-78
2023/05/07 05:48:22;;;;;;;5.28;3.20;;;;;;;14.38;100.00;95729.31;5057282;28;20131;-77
2023/05/07 05:50:48;;;;;;;4.03;3.30;;;;;;;14.46;100.00;95737.25;5054869;28;20112;-77
2023/05/07 05:53:13;;;;;;;3.40;3.20;;;;;;;14.55;100.00;95737.25;5051504;28;20032;-77
2023/05/07 05:55:39;;;;;;;3.60;3.33;;;;;;;14.56;100.00;95733.63;5053261;28;20024;-77
2023/05/07 05:58:04;;;;;;;3.67;3.28;;;;;;;14.56;99.54;95736.25;5055070;28;20485;-78
2023/05/07 06:00:30;;;;;;;3.85;3.55;;;;;;;14.67;99.20;95735.94;5053213;28;20037;-77
2023/05/07 06:02:55;;;;;;;7.32;4.00;;;;;;;14.56;100.00;95733.63;5055132;28;20020;-78
2023/05/07 06:05:21;;;;;;;4.03;3.60;;;;;;;14.53;100.00;95739.25;5053706;28;20021;-78
2023/05/07 06:07:46;;;;;;;9.70;3.72;;;;;;;14.72;99.91;95735.47;5052963;28;20465;-78
2023/05/07 06:10:12;;;;;;;3.78;3.47;;;;;;;14.92;97.83;95741.25;5053326;28;20172;-77
2023/05/07 06:12:37;;;;;;;3.70;3.40;;;;;;;14.99;97.32;95738.75;5054748;28;20033;-79
2023/05/07 06:15:03;;;;;;;3.67;3.47;;;;;;;15.13;95.41;95742.53;5053554;28;20103;-79
2023/05/07 06:17:29;;;;;;;6.95;3.60;;;;;;;15.22;94.50;95746.00;5046811;28;20052;-78
2023/05/07 06:19:54;;;;;;;3.63;3.33;;;;;;;15.24;95.15;95749.31;5047801;28;20060;-78
2023/05/07 06:22:20;;;;;;;5.28;3.45;;;;;;;15.22;94.06;95741.50;5045197;28;20028;-79
2023/05/07 06:24:46;;;;;;;3.20;3.00;;;;;;;15.14;93.51;95746.84;5054687;28;20362;-78
2023/05/07 06:27:11;;;;;;;4.22;3.10;;;;;;;15.23;93.66;95742.34;5054043;28;20052;-78
2023/05/07 06:29:36;;;;;;;3.53;3.05;;;;;;;15.41;92.25;95742.97;5053151;28;20025;-78
2023/05/07 06:32:12;;;;;;;5.32;3.83;;;;;;;15.45;92.91;95746.91;5054482;28;20100;-78
2023/05/07 06:34:39;;;;;;;4.50;3.28;;;;;;;15.58;92.09;95743.72;5052773;28;20040;-78
2023/05/07 06:37:05;;;;;;;4.25;3.22;;;;;;;15.89;90.84;95742.13;5062228;28;20542;-78
2023/05/07 06:39:31;;;;;;;4.43;3.20;;;;;;;16.16;88.43;95735.50;5050428;28;20052;-78
2023/05/07 06:41:57;;;;;;;3.15;2.88;;;;;;;16.43;86.71;95737.78;5047042;28;20644;-78
2023/05/07 06:44:22;;;;;;;3.55;3.28;;;;;;;16.69;86.26;95732.13;5054102;28;20024;-78
2023/05/07 06:46:48;;;;;;;3.47;3.17;;;;;;;16.88;85.11;95728.09;5053743;28;20041;-79
2023/05/07 06:49:14;;;;;;;4.28;3.30;;;;;;;17.07;83.63;95731.28;5054503;28;20024;-79
2023/05/07 06:51:40;;;;;;;5.60;3.20;;;;;;;17.24;82.26;95717.81;5053831;28;20082;-78
2023/05/07 06:54:05;;;;;;;4.63;3.25;;;;;;;17.31;80.97;95729.38;5053808;28;20021;-78
2023/05/07 06:56:31;;;;;;;7.22;3.20;;;;;;;17.54;79.67;95731.13;5054458;28;20037;-79
2023/05/07 06:58:57;;;;;;;4.43;3.00;;;;;;;17.74;76.98;95729.53;5054389;28;20025;-79
2023/05/07 07:01:22;;;;;;;5.70;3.28;;;;;;;17.78;76.30;95729.16;5058117;28;20025;-79
2023/05/07 07:03:47;;;;;;;4.28;3.13;;;;;;;17.59;78.42;95737.53;5054101;28;20021;-78
2023/05/07 07:06:13;;;;;;;3.60;3.33;;;;;;;17.62;77.45;95739.03;5057172;28;20029;-79
2023/05/07 07:08:38;;;;;;;4.30;3.33;;;;;;;17.77;76.38;95741.66;5057833;28;20040;-77
2023/05/07 07:11:04;;;;;;;3.72;2.95;;;;;;;17.58;78.16;95745.72;5058161;28;20029;-79
2023/05/07 07:13:30;;;;;;;5.40;3.10;;;;;;;17.76;76.73;95748.00;5057561;28;20037;-79
2023/05/07 07:15:55;;;;;;;3.33;3.03;;;;;;;17.97;75.37;95739.22;5056494;28;20024;-79
2023/05/07 07:18:21;;;;;;;4.38;3.35;;;;;;;17.91;74.22;95745.31;5057871;28;20029;-79
2023/05/07 07:20:46;;;;;;;3.20;3.00;;;;;;;18.00;73.17;95744.16;5057420;28;20375;-80
2023/05/07 07:23:12;;;;;;;12.07;3.30;;;;;;;18.11;72.86;95742.88;5057552;28;20067;-79
2023/05/07 07:25:37;;;;;;;3.33;3.10;;;;;;;18.61;70.79;95742.97;5054974;28;20460;-79
2023/05/07 07:28:02;;;;;;;5.95;3.15;;;;;;;19.25;66.33;95751.13;5043111;28;20063;-76
2023/05/07 07:30:28;;;;;;;3.88;2.90;;;;;;;19.44;65.77;95738.91;5055574;28;20029;-78
2023/05/07 07:32:54;;;;;;;2.78;2.55;;;;;;;19.61;64.80;95742.06;5054206;28;20899;-77
2023/05/07 07:35:20;;;;;;;3.38;2.80;;;;;;;19.47;64.04;95740.38;5049035;28;20029;-78
2023/05/07 07:37:45;;;;;;;2.83;2.53;;;;;;;19.50;64.85;95737.31;5054391;28;20108;-79
2023/05/07 07:40:11;;;;;;;4.78;2.55;;;;;;;19.81;64.17;95738.66;5055701;28;20101;-78
2023/05/07 07:42:37;;;;;;;2.40;2.20;;;;;;;20.25;60.63;95736.59;5057488;28;20155;-80
2023/05/07 07:45:03;;;;;;;6.22;2.70;;;;;;;20.35;60.12;95738.03;5056052;28;20071;-74
2023/05/07 07:47:28;;;;;;;9.57;2.60;;;;;;;19.75;62.65;95734.94;5055326;28;20024;-75
2023/05/07 07:49:53;;;;;;;6.47;2.53;;;;;;;19.44;66.17;95738.06;5056983;28;20183;-75
2023/05/07 07:52:19;;;;;;;7.30;2.88;;;;;;;19.54;67.07;95743.06;5055610;28;20024;-76
2023/05/07 07:54:45;;;;;;;12.80;3.10;;;;;;;19.92;63.17;95745.31;5056500;28;20033;-77
2023/05/07 07:57:10;;;;;;;16.38;2.92;;;;;;;19.37;65.90;95746.06;5038899;28;20025;-75
2023/05/07 07:59:36;;;;;;;2.75;2.40;;;;;;;18.98;68.47;95744.72;5057004;28;20396;-76
2023/05/07 08:02:01;;;;;;;3.95;2.38;;;;;;;19.66;64.99;95741.47;5055110;28;20028;-75
2023/05/07 08:04:26;;;;;;;23.90;3.42;;;;;;;19.15;67.04;95748.78;5056257;28;20017;-76
2023/05/07 08:06:54;;;;;;;25.17;3.63;;;;;;;19.16;67.23;95752.28;5056728;28;20065;-75
2023/05/07 08:09:20;;;;;;;6.10;2.95;;;;;;;18.72;70.19;95752.31;5043365;28;20249;-75
2023/05/07 08:11:45;;;;;;;12.25;3.60;;;;;;;18.74;71.17;95752.94;5055859;28;20087;-75
2023/05/07 08:14:11;;;;;;;3.30;3.00;;;;;;;18.73;70.66;95753.16;5056579;28;20029;-74
2023/05/07 08:16:36;;;;;;;5.10;3.20;;;;;;;18.69;71.12;95762.56;5055411;28;20035;-78
2023/05/07 08:19:02;;;;;;;4.22;3.30;;;;;;;18.56;71.60;95758.72;5055374;28;20112;-75
2023/05/07 08:21:27;;;;;;;3.22;3.03;;;;;;;18.39;72.37;95768.00;5056750;28;20110;-74
2023/05/07 08:23:53;;;;;;;3.50;3.20;;;;;;;18.08;74.45;95771.75;5055058;28;20033;-80
2023/05/07 08:26:18;;;;;;;3.72;3.42;;;;;;;18.09;73.66;95768.88;5057009;28;20440;-76
2023/05/07 08:28:43;;;;;;;4.35;3.45;;;;;;;18.00;73.47;95770.81;5056195;28;20032;-78
2023/05/07 08:31:09;;;;;;;4.47;3.75;;;;;;;17.65;75.44;95778.56;5056891;28;20048;-77
2023/05/07 08:33:34;;;;;;;6.53;3.78;;;;;;;17.66;75.67;95779.38;5056819;28;20094;-78
2023/05/07 08:36:00;;;;;;;3.67;3.38;;;;;;;17.45;77.23;95775.63;5059016;28;20028;-82
2023/05/07 08:38:25;;;;;;;3.78;3.20;;;;;;;17.89;74.01;95787.28;5057086;28;20459;-83
2023/05/07 08:40:51;;;;;;;4.05;3.60;;;;;;;17.65;75.27;95778.56;5056507;28;20108;-78
2023/05/07 08:43:18;;;;;;;3.17;2.88;;;;;;;17.77;74.52;95773.63;5054986;28;20021;-76
2023/05/07 08:45:45;;;;;;;4.15;3.38;;;;;;;17.64;75.81;95776.09;5052651;28;20275;-82
2023/05/07 08:48:17;;;;;;;3.08;2.78;;;;;;;17.90;74.32;95783.59;5053426;28;20055;-80
2023/05/07 08:50:42;;;;;;;4.05;3.20;;;;;;;17.73;74.97;95775.81;5056545;28;20081;-81
2023/05/07 08:53:08;;;;;;;3.40;3.10;;;;;;;17.72;75.34;95779.47;5055186;28;20033;-82
2023/05/07 08:55:33;;;;;;;3.40;3.10;;;;;;;17.87;73.38;95776.00;5056277;28;20037;-77
2023/05/07 08:58:00;;;;;;;4.07;3.28;;;;;;;17.92;73.70;95778.09;5054801;28;20401;-80
2023/05/07 09:00:25;;;;;;;3.88;3.03;;;;;;;17.84;73.59;95787.00;5055723;28;20497;-80
2023/05/07 09:02:53;;;;;;;9.00;3.10;;;;;;;17.89;74.74;95773.97;5055910;28;20021;-80
2023/05/07 09:05:18;;;;;;;4.72;3.05;;;;;;;18.04;73.74;95776.63;5056663;28;20025;-80
2023/05/07 09:07:44;;;;;;;4.82;3.25;;;;;;;18.08;73.96;95777.91;5052348;28;20112;-81
2023/05/07 09:10:10;;;;;;;2.85;2.60;;;;;;;18.31;72.23;95784.91;5055637;28;20029;-80
2023/05/07 09:12:36;;;;;;;5.88;2.85;;;;;;;18.30;72.34;95777.94;5055089;28;20052;-80
2023/05/07 09:15:02;;;;;;;9.13;2.88;;;;;;;18.09;73.81;95778.75;5054418;28;20040;-79
2023/05/07 09:17:28;;;;;;;5.85;2.78;;;;;;;18.36;73.47;95779.03;5053914;28;20037;-80
2023/05/07 09:19:53;;;;;;;6.43;2.97;;;;;;;18.49;72.02;95781.00;5070801;28;20067;-80
2023/05/07 09:22:19;;;;;;;4.07;3.08;;;;;;;18.32;72.73;95784.75;5053229;28;20047;-77
2023/05/07 09:24:51;;;;;;;6.57;3.42;;;;;;;17.92;77.00;95784.25;5055332;28;20029;-78
2023/05/07 09:27:17;;;;;;;5.65;3.30;;;;;;;18.31;73.02;95783.09;5054815;28;20060;-77
2023/05/07 09:29:44;;;;;;;4.05;3.30;;;;;;;17.82;75.03;95787.19;5055571;28;20025;-78
2023/05/07 09:32:09;;;;;;;5.93;3.33;;;;;;;17.85;77.23;95789.47;5057014;28;20029;-78
2023/05/07 09:34:36;;;;;;;3.35;2.83;;;;;;;17.58;77.77;95786.47;5061275;28;20029;-77
2023/05/07 09:37:05;;;;;;;3.25;2.95;;;;;;;17.41;78.15;95788.50;5055219;28;20028;-77
2023/05/07 09:39:41;;;;;;;4.25;3.50;;;;;;;17.10;80.13;95792.09;5054179;28;20053;-76
2023/05/07 09:42:07;;;;;;;4.40;3.22;;;;;;;16.96;82.68;95800.84;5055275;28;20052;-77
2023/05/07 09:44:33;;;;;;;6.88;3.55;;;;;;;16.77;85.19;95795.03;5052128;28;20108;-76
2023/05/07 09:47:00;;;;;;;5.55;3.40;;;;;;;16.42;87.86;95799.91;5054503;28;20095;-76
2023/05/07 09:49:31;;;;;;;5.28;3.70;;;;;;;16.51;87.67;95811.31;5054691;28;20029;-77
2023/05/07 09:52:00;;;;;;;5.55;3.97;;;;;;;16.56;88.61;95804.47;5054325;28;20035;-77
2023/05/07 09:54:27;;;;;;;6.20;4.18;;;;;;;16.21;89.57;95808.50;5055261;28;20124;-77
2023/05/07 09:56:55;;;;;;;4.40;4.07;;;;;;;15.81;94.68;95811.16;5053309;28;20033;-78
2023/05/07 09:59:22;;;;;;;4.95;4.30;;;;;;;16.09;91.52;95821.34;5052563;28;20478;-77
2023/05/07 10:01:48;;;;;;;4.70;4.30;;;;;;;15.62;95.72;95818.50;5054795;28;20059;-77
2023/05/07 10:04:14;;;;;;;4.93;4.32;;;;;;;15.61;95.00;95824.81;5048619;28;20051;-76
2023/05/07 10:06:40;;;;;;;6.30;4.28;;;;;;;15.52;96.46;95826.66;5037044;28;20424;-76
2023/05/07 10:09:06;;;;;;;5.55;4.82;;;;;;;15.32;98.64;95837.66;5052487;28;20454;-76
2023/05/07 10:11:35;;;;;;;4.13;3.72;;;;;;;15.21;100.00;95840.63;5052546;28;20079;-77
2023/05/07 10:14:02;;;;;;;5.18;4.78;;;;;;;15.44;99.74;95845.22;5050935;28;20037;-77
2023/05/07 10:16:36;;;;;;;4.65;4.25;;;;;;;15.43;100.00;95847.06;5050472;28;20024;-73
2023/05/07 10:19:03;;;;;;;4.45;4.03;;;;;;;15.36;100.00;95853.22;5054516;28;20028;-76
2023/05/07 10:21:31;;;;;;;7.32;3.90;;;;;;;15.68;96.11;95862.94;5054178;28;20060;-75
2023/05/07 10:24:08;;;;;;;4.93;4.15;;;;;;;15.24;99.35;95860.69;5050815;28;20021;-76
2023/05/07 10:26:35;;;;;;;4.45;4.07;;;;;;;15.01;100.00;95856.88;5051529;28;20025;-74
2023/05/07 10:29:14;;;;;;;5.90;4.30;;;;;;;15.15;100.00;95857.22;5045246;28;20098;-78
2023/05/07 10:31:43;;;;;;;8.55;4.38;;;;;;;15.00;100.00;95863.16;5054371;28;20021;-77
2023/05/07 10:34:13;;;;;;;5.63;4.18;;;;;;;14.73;100.00;95870.44;5045647;28;20119;-73
2023/05/07 10:36:39;;;;;;;4.72;4.13;;;;;;;14.58;100.00;95870.22;5056213;28;20489;-73
2023/05/07 10:39:05;;;;;;;5.75;4.18;;;;;;;14.50;100.00;95872.88;5057083;28;20064;-76
2023/05/07 10:41:31;;;;;;;5.68;5.18;;;;;;;14.44;100.00;95866.41;5055114;28;20025;-75
2023/05/07 10:43:57;;;;;;;5.90;5.30;;;;;;;14.44;100.00;95871.69;5053791;28;20520;-75
2023/05/07 10:46:23;;;;;;;7.05;4.97;;;;;;;14.46;100.00;95868.88;5056183;28;20029;-72
2023/05/07 10:49:00;;;;;;;7.47;4.65;;;;;;;14.49;100.00;95871.22;5058467;28;20032;-71
2023/05/07 10:51:26;;;;;;;5.13;4.72;;;;;;;14.54;100.00;95870.72;5058800;28;20021;-71
2023/05/07 10:54:14;;;;;;;6.07;4.35;;;;;;;14.50;100.00;95869.38;5055108;28;20029;-70
2023/05/07 10:56:42;;;;;;;6.50;4.60;;;;;;;14.57;100.00;95871.22;5058498;28;20127;-71
2023/05/07 10:59:20;;;;;;;5.93;4.80;;;;;;;14.62;100.00;95862.78;5057019;28;20013;-74
2023/05/07 11:01:57;;;;;;;7.35;4.47;;;;;;;14.65;100.00;95862.47;5057638;28;20028;-71
2023/05/07 11:04:31;;;;;;;8.77;5.30;;;;;;;14.68;100.00;95870.09;5057452;28;20050;-76
2023/05/07 11:07:05;;;;;;;5.32;4.82;;;;;;;14.72;100.00;95865.31;5058163;28;20025;-74
2023/05/07 11:09:53;;;;;;;7.95;4.50;;;;;;;14.71;100.00;95868.97;5057477;28;20024;-74
2023/05/07 11:12:40;;;;;;;5.63;4.63;;;;;;;14.71;100.00;95871.63;5057473;28;20136;-75
2023/05/07 11:15:10;;;;;;;6.00;4.60;;;;;;;14.77;100.00;95873.59;5056575;28;20390;-76
2023/05/07 11:17:56;;;;;;;6.68;4.78;;;;;;;14.76;100.00;95871.94;5054711;28;20316;-74
2023/05/07 11:20:44;;;;;;;5.95;4.30;;;;;;;14.84;100.00;95871.94;5056360;28;20025;-76
2023/05/07 11:23:31;;;;;;;5.47;4.35;;;;;;;14.73;100.00;95867.78;5054963;28;20033;-76
2023/05/07 11:26:08;;;;;;;5.05;4.60;;;;;;;14.73;100.00;95867.78;5051972;28;20043;-77